sensor_id;sensor_type;location;lat;lon;timestamp;temperature;humidity
46091;DHT22;31826;53.572;10.170;2023-04-09T00:01:46;7.10;99.90
46091;DHT22;31826;53.572;10.170;2023-04-09T00:04:12;7.10;99.90
46091;DHT22;31826;53.572;10.170;2023-04-09T00:06:37;7.10;99.90
46091;DHT22;31826;53.572;10.170;2023-04-09T00:09:03;7.10;99.90
46091;DHT22;31826;53.572;10.170;2023-04-09T00:11:29;7.00;99.90
46091;DHT22;31826;53.572;10.170;2023-04-09T00:13:56;7.00;99.90
46091;DHT22;31826;53.572;10.170;2023-04-09T00:16:22;7.00;99.90
46091;DHT22;31826;53.572;10.170;2023-04-09T00:18:47;7.00;99.90
46091;DHT22;31826;53.572;10.170;2023-04-09T00:21:13;7.00;99.90
46091;DHT22;31826;53.572;10.170;2023-04-09T00:23:41;7.00;99.90
46091;DHT22;31826;53.572;10.170;2023-04-09T00:26:07;7.00;99.90
46091;DHT22;31826;53.572;10.170;2023-04-09T00:28:33;7.00;99.90
46091;DHT22;31826;53.572;10.170;2023-04-09T00:30:59;7.00;99.90
46091;DHT22;31826;53.572;10.170;2023-04-09T00:33:25;7.00;99.90
46091;DHT22;31826;53.572;10.170;2023-04-09T00:35:51;7.00;99.90
46091;DHT22;31826;53.572;10.170;2023-04-09T00:38:17;7.10;99.90
46091;DHT22;31826;53.572;10.170;2023-04-09T00:40:43;7.00;99.90
46091;DHT22;31826;53.572;10.170;2023-04-09T00:43:09;7.00;99.90
46091;DHT22;31826;53.572;10.170;2023-04-09T00:45:34;6.90;99.90
46091;DHT22;31826;53.572;10.170;2023-04-09T00:48:00;6.90;99.90
46091;DHT22;31826;53.572;10.170;2023-04-09T00:50:26;7.00;99.90
46091;DHT22;31826;53.572;10.170;2023-04-09T00:52:52;7.00;99.90
46091;DHT22;31826;53.572;10.170;2023-04-09T00:55:19;7.00;99.90
46091;DHT22;31826;53.572;10.170;2023-04-09T00:57:45;7.10;99.90
46091;DHT22;31826;53.572;10.170;2023-04-09T01:00:11;6.90;99.90
46091;DHT22;31826;53.572;10.170;2023-04-09T01:02:38;6.90;99.90
46091;DHT22;31826;53.572;10.170;2023-04-09T01:05:04;6.90;99.90
46091;DHT22;31826;53.572;10.170;2023-04-09T01:13:12;7.00;99.90
46091;DHT22;31826;53.572;10.170;2023-04-09T01:15:48;7.00;99.90
46091;DHT22;31826;53.572;10.170;2023-04-09T01:18:31;7.00;99.90
46091;DHT22;31826;53.572;10.170;2023-04-09T01:21:04;7.00;99.90
46091;DHT22;31826;53.572;10.170;2023-04-09T01:23:46;7.00;99.90
46091;DHT22;31826;53.572;10.170;2023-04-09T01:29:25;6.90;99.90
46091;DHT22;31826;53.572;10.170;2023-04-09T01:31:53;6.90;99.90
46091;DHT22;31826;53.572;10.170;2023-04-09T01:34:19;6.90;99.90
46091;DHT22;31826;53.572;10.170;2023-04-09T01:36:51;6.90;99.90
46091;DHT22;31826;53.572;10.170;2023-04-09T01:39:18;6.90;99.90
46091;DHT22;31826;53.572;10.170;2023-04-09T01:41:44;6.90;99.90
46091;DHT22;31826;53.572;10.170;2023-04-09T01:44:11;6.90;99.90
46091;DHT22;31826;53.572;10.170;2023-04-09T01:46:38;6.90;99.90
46091;DHT22;31826;53.572;10.170;2023-04-09T01:49:05;6.90;99.90
46091;DHT22;31826;53.572;10.170;2023-04-09T01:51:31;6.80;99.90
46091;DHT22;31826;53.572;10.170;2023-04-09T01:54:00;6.80;99.90
46091;DHT22;31826;53.572;10.170;2023-04-09T01:56:25;6.90;99.90
46091;DHT22;31826;53.572;10.170;2023-04-09T01:58:51;6.80;99.90
46091;DHT22;31826;53.572;10.170;2023-04-09T02:01:27;6.80;99.90
46091;DHT22;31826;53.572;10.170;2023-04-09T02:03:57;6.80;99.90
46091;DHT22;31826;53.572;10.170;2023-04-09T02:06:30;6.80;99.90
46091;DHT22;31826;53.572;10.170;2023-04-09T02:08:57;6.80;99.90
46091;DHT22;31826;53.572;10.170;2023-04-09T02:11:25;6.90;99.90
46091;DHT22;31826;53.572;10.170;2023-04-09T02:13:53;6.80;99.90
46091;DHT22;31826;53.572;10.170;2023-04-09T02:16:20;6.80;99.90
46091;DHT22;31826;53.572;10.170;2023-04-09T02:18:55;6.80;99.90
46091;DHT22;31826;53.572;10.170;2023-04-09T02:21:26;6.70;99.90
46091;DHT22;31826;53.572;10.170;2023-04-09T02:23:53;6.80;99.90
46091;DHT22;31826;53.572;10.170;2023-04-09T02:26:20;6.80;99.90
46091;DHT22;31826;53.572;10.170;2023-04-09T02:28:46;6.80;99.90
46091;DHT22;31826;53.572;10.170;2023-04-09T02:31:12;6.80;99.90
46091;DHT22;31826;53.572;10.170;2023-04-09T02:33:37;6.80;99.90
46091;DHT22;31826;53.572;10.170;2023-04-09T02:36:04;6.80;99.90
46091;DHT22;31826;53.572;10.170;2023-04-09T02:38:30;6.70;99.90
46091;DHT22;31826;53.572;10.170;2023-04-09T02:40:56;6.80;99.90
46091;DHT22;31826;53.572;10.170;2023-04-09T02:43:22;6.70;99.90
46091;DHT22;31826;53.572;10.170;2023-04-09T02:45:48;6.80;99.90
46091;DHT22;31826;53.572;10.170;2023-04-09T02:48:13;6.80;99.90
46091;DHT22;31826;53.572;10.170;2023-04-09T02:50:39;6.80;99.90
46091;DHT22;31826;53.572;10.170;2023-04-09T02:53:05;6.80;99.90
46091;DHT22;31826;53.572;10.170;2023-04-09T02:55:31;6.80;99.90
46091;DHT22;31826;53.572;10.170;2023-04-09T02:57:56;6.80;99.90
46091;DHT22;31826;53.572;10.170;2023-04-09T03:00:22;6.80;99.90
46091;DHT22;31826;53.572;10.170;2023-04-09T03:02:48;6.80;99.90
46091;DHT22;31826;53.572;10.170;2023-04-09T03:05:14;6.70;99.90
46091;DHT22;31826;53.572;10.170;2023-04-09T03:07:39;6.70;99.90
46091;DHT22;31826;53.572;10.170;2023-04-09T03:10:05;6.70;99.90
46091;DHT22;31826;53.572;10.170;2023-04-09T03:12:31;6.70;99.90
46091;DHT22;31826;53.572;10.170;2023-04-09T03:14:57;6.70;99.90
46091;DHT22;31826;53.572;10.170;2023-04-09T03:17:22;6.70;99.90
46091;DHT22;31826;53.572;10.170;2023-04-09T03:19:51;6.70;99.90
46091;DHT22;31826;53.572;10.170;2023-04-09T03:22:17;6.70;99.90
46091;DHT22;31826;53.572;10.170;2023-04-09T03:24:43;6.70;99.90
46091;DHT22;31826;53.572;10.170;2023-04-09T03:27:09;6.70;99.90
46091;DHT22;31826;53.572;10.170;2023-04-09T03:29:35;6.70;99.90
46091;DHT22;31826;53.572;10.170;2023-04-09T03:32:00;6.70;99.90
46091;DHT22;31826;53.572;10.170;2023-04-09T03:34:26;6.70;99.90
46091;DHT22;31826;53.572;10.170;2023-04-09T03:36:52;6.70;99.90
46091;DHT22;31826;53.572;10.170;2023-04-09T03:39:17;6.70;99.90
46091;DHT22;31826;53.572;10.170;2023-04-09T03:41:43;6.60;99.90
46091;DHT22;31826;53.572;10.170;2023-04-09T03:44:09;6.70;99.90
46091;DHT22;31826;53.572;10.170;2023-04-09T03:46:35;6.70;99.90
46091;DHT22;31826;53.572;10.170;2023-04-09T03:49:00;6.70;99.90
46091;DHT22;31826;53.572;10.170;2023-04-09T03:51:26;6.70;99.90
46091;DHT22;31826;53.572;10.170;2023-04-09T03:53:52;6.70;99.90
46091;DHT22;31826;53.572;10.170;2023-04-09T03:56:18;6.80;99.90
46091;DHT22;31826;53.572;10.170;2023-04-09T03:58:43;6.80;99.90
46091;DHT22;31826;53.572;10.170;2023-04-09T04:01:09;6.80;99.90
46091;DHT22;31826;53.572;10.170;2023-04-09T04:03:35;6.60;99.90
46091;DHT22;31826;53.572;10.170;2023-04-09T04:06:02;6.60;99.90
46091;DHT22;31826;53.572;10.170;2023-04-09T04:08:28;6.60;99.90
46091;DHT22;31826;53.572;10.170;2023-04-09T04:10:54;6.60;99.90
46091;DHT22;31826;53.572;10.170;2023-04-09T04:13:20;6.70;99.90
46091;DHT22;31826;53.572;10.170;2023-04-09T04:15:46;6.60;99.90
46091;DHT22;31826;53.572;10.170;2023-04-09T04:18:11;6.60;99.90
46091;DHT22;31826;53.572;10.170;2023-04-09T04:20:38;6.60;99.90
46091;DHT22;31826;53.572;10.170;2023-04-09T04:23:03;6.50;99.90
46091;DHT22;31826;53.572;10.170;2023-04-09T04:25:29;6.60;99.90
46091;DHT22;31826;53.572;10.170;2023-04-09T04:27:56;6.50;99.90
46091;DHT22;31826;53.572;10.170;2023-04-09T04:30:22;6.60;99.90
46091;DHT22;31826;53.572;10.170;2023-04-09T04:32:48;6.70;99.90
46091;DHT22;31826;53.572;10.170;2023-04-09T04:35:14;6.60;99.90
46091;DHT22;31826;53.572;10.170;2023-04-09T04:37:40;6.60;99.90
46091;DHT22;31826;53.572;10.170;2023-04-09T04:40:07;6.70;99.90
46091;DHT22;31826;53.572;10.170;2023-04-09T04:42:33;6.70;99.90
46091;DHT22;31826;53.572;10.170;2023-04-09T04:44:59;6.70;99.90
46091;DHT22;31826;53.572;10.170;2023-04-09T04:47:25;6.70;99.90
46091;DHT22;31826;53.572;10.170;2023-04-09T04:49:51;6.60;99.90
46091;DHT22;31826;53.572;10.170;2023-04-09T04:52:17;6.60;99.90
46091;DHT22;31826;53.572;10.170;2023-04-09T04:54:43;6.70;99.90
46091;DHT22;31826;53.572;10.170;2023-04-09T04:57:08;6.70;99.90
46091;DHT22;31826;53.572;10.170;2023-04-09T04:59:38;6.60;99.90
46091;DHT22;31826;53.572;10.170;2023-04-09T05:02:05;6.70;99.90
46091;DHT22;31826;53.572;10.170;2023-04-09T05:04:31;6.70;99.90
46091;DHT22;31826;53.572;10.170;2023-04-09T05:06:56;6.60;99.90
46091;DHT22;31826;53.572;10.170;2023-04-09T05:09:22;6.70;99.90
46091;DHT22;31826;53.572;10.170;2023-04-09T05:11:48;6.70;99.90
46091;DHT22;31826;53.572;10.170;2023-04-09T05:14:14;6.70;99.90
46091;DHT22;31826;53.572;10.170;2023-04-09T05:16:39;6.70;99.90
46091;DHT22;31826;53.572;10.170;2023-04-09T05:19:06;6.60;99.90
46091;DHT22;31826;53.572;10.170;2023-04-09T05:21:31;6.70;99.90
46091;DHT22;31826;53.572;10.170;2023-04-09T05:23:57;6.70;99.90
46091;DHT22;31826;53.572;10.170;2023-04-09T05:26:23;6.70;99.90
46091;DHT22;31826;53.572;10.170;2023-04-09T05:28:49;6.70;99.90
46091;DHT22;31826;53.572;10.170;2023-04-09T05:31:15;6.70;99.90
46091;DHT22;31826;53.572;10.170;2023-04-09T05:33:41;6.80;99.90
46091;DHT22;31826;53.572;10.170;2023-04-09T05:36:07;6.80;99.90
46091;DHT22;31826;53.572;10.170;2023-04-09T05:38:33;6.80;99.90
46091;DHT22;31826;53.572;10.170;2023-04-09T05:40:59;6.80;99.90
46091;DHT22;31826;53.572;10.170;2023-04-09T05:43:25;6.80;99.90
46091;DHT22;31826;53.572;10.170;2023-04-09T05:45:51;6.80;99.90
46091;DHT22;31826;53.572;10.170;2023-04-09T05:48:17;6.80;99.90
46091;DHT22;31826;53.572;10.170;2023-04-09T05:50:51;6.80;99.90
46091;DHT22;31826;53.572;10.170;2023-04-09T05:53:18;6.80;99.90
46091;DHT22;31826;53.572;10.170;2023-04-09T05:55:44;6.90;99.90
46091;DHT22;31826;53.572;10.170;2023-04-09T05:58:11;6.80;99.90
46091;DHT22;31826;53.572;10.170;2023-04-09T06:00:37;6.80;99.90
46091;DHT22;31826;53.572;10.170;2023-04-09T06:03:03;6.80;99.90
46091;DHT22;31826;53.572;10.170;2023-04-09T06:05:29;6.80;99.90
46091;DHT22;31826;53.572;10.170;2023-04-09T06:07:55;6.80;99.90
46091;DHT22;31826;53.572;10.170;2023-04-09T06:10:21;6.80;99.90
46091;DHT22;31826;53.572;10.170;2023-04-09T06:12:46;6.80;99.90
46091;DHT22;31826;53.572;10.170;2023-04-09T06:15:12;6.90;99.90
46091;DHT22;31826;53.572;10.170;2023-04-09T06:17:38;7.00;99.90
46091;DHT22;31826;53.572;10.170;2023-04-09T06:20:04;6.90;99.90
46091;DHT22;31826;53.572;10.170;2023-04-09T06:22:31;7.00;99.90
46091;DHT22;31826;53.572;10.170;2023-04-09T06:24:56;7.00;99.90
46091;DHT22;31826;53.572;10.170;2023-04-09T06:27:22;6.90;99.90
46091;DHT22;31826;53.572;10.170;2023-04-09T06:29:48;6.90;99.90
46091;DHT22;31826;53.572;10.170;2023-04-09T06:32:14;6.90;99.90
46091;DHT22;31826;53.572;10.170;2023-04-09T06:34:39;7.00;99.90
46091;DHT22;31826;53.572;10.170;2023-04-09T06:37:05;6.90;99.90
46091;DHT22;31826;53.572;10.170;2023-04-09T06:39:31;7.00;99.90
46091;DHT22;31826;53.572;10.170;2023-04-09T06:41:57;7.00;99.90
46091;DHT22;31826;53.572;10.170;2023-04-09T06:44:23;7.10;99.90
46091;DHT22;31826;53.572;10.170;2023-04-09T06:46:49;7.00;99.90
46091;DHT22;31826;53.572;10.170;2023-04-09T06:49:15;7.00;99.90
46091;DHT22;31826;53.572;10.170;2023-04-09T06:51:41;7.10;99.90
46091;DHT22;31826;53.572;10.170;2023-04-09T06:54:07;7.10;99.90
46091;DHT22;31826;53.572;10.170;2023-04-09T06:56:33;7.00;99.90
46091;DHT22;31826;53.572;10.170;2023-04-09T06:58:59;7.10;99.90
46091;DHT22;31826;53.572;10.170;2023-04-09T07:01:26;7.10;99.90
46091;DHT22;31826;53.572;10.170;2023-04-09T07:03:52;7.10;99.90
46091;DHT22;31826;53.572;10.170;2023-04-09T07:06:18;7.10;99.90
46091;DHT22;31826;53.572;10.170;2023-04-09T07:08:43;7.10;99.90
46091;DHT22;31826;53.572;10.170;2023-04-09T07:11:09;7.20;99.90
46091;DHT22;31826;53.572;10.170;2023-04-09T07:13:35;7.20;99.90
46091;DHT22;31826;53.572;10.170;2023-04-09T07:16:01;7.20;99.90
46091;DHT22;31826;53.572;10.170;2023-04-09T07:18:26;7.20;99.90
46091;DHT22;31826;53.572;10.170;2023-04-09T07:20:52;7.20;99.90
46091;DHT22;31826;53.572;10.170;2023-04-09T07:23:18;7.30;99.90
46091;DHT22;31826;53.572;10.170;2023-04-09T07:25:44;7.20;99.90
46091;DHT22;31826;53.572;10.170;2023-04-09T07:28:10;7.20;99.90
46091;DHT22;31826;53.572;10.170;2023-04-09T07:30:38;7.30;99.90
46091;DHT22;31826;53.572;10.170;2023-04-09T07:33:04;7.30;99.90
46091;DHT22;31826;53.572;10.170;2023-04-09T07:35:29;7.40;99.90
46091;DHT22;31826;53.572;10.170;2023-04-09T07:37:57;7.40;99.90
46091;DHT22;31826;53.572;10.170;2023-04-09T07:40:23;7.50;99.90
46091;DHT22;31826;53.572;10.170;2023-04-09T07:42:49;7.50;99.90
46091;DHT22;31826;53.572;10.170;2023-04-09T07:45:15;7.50;99.90
46091;DHT22;31826;53.572;10.170;2023-04-09T07:47:41;7.50;99.90
46091;DHT22;31826;53.572;10.170;2023-04-09T07:50:08;7.60;99.90
46091;DHT22;31826;53.572;10.170;2023-04-09T07:52:33;7.70;99.90
46091;DHT22;31826;53.572;10.170;2023-04-09T07:54:59;7.70;99.90
46091;DHT22;31826;53.572;10.170;2023-04-09T07:57:25;7.70;99.90
46091;DHT22;31826;53.572;10.170;2023-04-09T07:59:52;7.70;99.90
46091;DHT22;31826;53.572;10.170;2023-04-09T08:02:18;7.60;99.90
46091;DHT22;31826;53.572;10.170;2023-04-09T08:04:43;7.60;99.90
46091;DHT22;31826;53.572;10.170;2023-04-09T08:07:09;7.50;99.90
46091;DHT22;31826;53.572;10.170;2023-04-09T08:09:35;7.40;99.90
46091;DHT22;31826;53.572;10.170;2023-04-09T08:12:02;7.50;99.90
46091;DHT22;31826;53.572;10.170;2023-04-09T08:14:28;7.60;99.90
46091;DHT22;31826;53.572;10.170;2023-04-09T08:16:54;7.80;99.90
46091;DHT22;31826;53.572;10.170;2023-04-09T08:19:19;7.90;99.90
46091;DHT22;31826;53.572;10.170;2023-04-09T08:21:45;7.90;99.90
46091;DHT22;31826;53.572;10.170;2023-04-09T08:24:13;8.00;99.90
46091;DHT22;31826;53.572;10.170;2023-04-09T08:26:40;7.90;99.90
46091;DHT22;31826;53.572;10.170;2023-04-09T08:29:07;7.90;99.90
46091;DHT22;31826;53.572;10.170;2023-04-09T08:31:34;8.00;99.90
46091;DHT22;31826;53.572;10.170;2023-04-09T08:34:01;8.00;99.90
46091;DHT22;31826;53.572;10.170;2023-04-09T08:36:26;8.10;99.90
46091;DHT22;31826;53.572;10.170;2023-04-09T08:38:52;8.20;99.90
46091;DHT22;31826;53.572;10.170;2023-04-09T08:41:21;8.20;99.90
46091;DHT22;31826;53.572;10.170;2023-04-09T08:43:49;8.20;99.90
46091;DHT22;31826;53.572;10.170;2023-04-09T08:46:19;8.20;99.90
46091;DHT22;31826;53.572;10.170;2023-04-09T08:48:47;8.30;99.90
46091;DHT22;31826;53.572;10.170;2023-04-09T08:51:17;8.30;99.90
46091;DHT22;31826;53.572;10.170;2023-04-09T08:54:07;8.40;99.90
46091;DHT22;31826;53.572;10.170;2023-04-09T08:56:32;8.50;99.90
46091;DHT22;31826;53.572;10.170;2023-04-09T08:58:58;8.50;99.90
46091;DHT22;31826;53.572;10.170;2023-04-09T09:01:26;8.60;99.90
46091;DHT22;31826;53.572;10.170;2023-04-09T09:04:00;8.60;99.90
46091;DHT22;31826;53.572;10.170;2023-04-09T09:06:29;8.60;99.90
46091;DHT22;31826;53.572;10.170;2023-04-09T09:09:05;8.60;99.90
46091;DHT22;31826;53.572;10.170;2023-04-09T09:11:32;8.70;99.90
46091;DHT22;31826;53.572;10.170;2023-04-09T09:14:08;8.70;99.90
46091;DHT22;31826;53.572;10.170;2023-04-09T09:16:40;8.70;99.90
46091;DHT22;31826;53.572;10.170;2023-04-09T09:19:09;8.80;99.90
46091;DHT22;31826;53.572;10.170;2023-04-09T09:21:35;8.90;99.90
46091;DHT22;31826;53.572;10.170;2023-04-09T09:24:02;9.00;99.90
46091;DHT22;31826;53.572;10.170;2023-04-09T09:26:40;8.90;99.90
46091;DHT22;31826;53.572;10.170;2023-04-09T09:29:06;8.90;99.90
46091;DHT22;31826;53.572;10.170;2023-04-09T09:31:48;9.00;99.90
46091;DHT22;31826;53.572;10.170;2023-04-09T09:34:17;8.90;99.90
46091;DHT22;31826;53.572;10.170;2023-04-09T09:36:44;8.90;99.90
46091;DHT22;31826;53.572;10.170;2023-04-09T09:39:11;8.80;99.90
46091;DHT22;31826;53.572;10.170;2023-04-09T09:41:40;8.90;99.90
46091;DHT22;31826;53.572;10.170;2023-04-09T09:44:07;9.00;99.90
46091;DHT22;31826;53.572;10.170;2023-04-09T09:46:37;9.10;99.90
46091;DHT22;31826;53.572;10.170;2023-04-09T09:49:04;9.30;99.90
46091;DHT22;31826;53.572;10.170;2023-04-09T09:51:32;9.30;99.90
46091;DHT22;31826;53.572;10.170;2023-04-09T09:53:58;9.40;99.90
46091;DHT22;31826;53.572;10.170;2023-04-09T09:56:30;9.50;99.90
46091;DHT22;31826;53.572;10.170;2023-04-09T10:01:43;9.50;99.90
46091;DHT22;31826;53.572;10.170;2023-04-09T10:04:13;9.50;99.90
46091;DHT22;31826;53.572;10.170;2023-04-09T10:06:42;9.50;99.90
46091;DHT22;31826;53.572;10.170;2023-04-09T10:09:09;9.50;99.90
46091;DHT22;31826;53.572;10.170;2023-04-09T10:11:36;9.50;99.90
46091;DHT22;31826;53.572;10.170;2023-04-09T10:14:03;9.60;99.90
46091;DHT22;31826;53.572;10.170;2023-04-09T10:16:30;9.40;99.90
46091;DHT22;31826;53.572;10.170;2023-04-09T10:18:57;9.30;99.90
46091;DHT22;31826;53.572;10.170;2023-04-09T10:24:18;9.20;99.90
46091;DHT22;31826;53.572;10.170;2023-04-09T10:26:44;9.10;99.90
46091;DHT22;31826;53.572;10.170;2023-04-09T10:29:13;9.30;99.90
46091;DHT22;31826;53.572;10.170;2023-04-09T10:32:04;9.50;99.90
46091;DHT22;31826;53.572;10.170;2023-04-09T10:34:34;9.70;99.90
46091;DHT22;31826;53.572;10.170;2023-04-09T10:37:00;9.90;99.90
46091;DHT22;31826;53.572;10.170;2023-04-09T10:39:30;10.00;99.90
46091;DHT22;31826;53.572;10.170;2023-04-09T10:42:05;10.10;99.90
46091;DHT22;31826;53.572;10.170;2023-04-09T10:44:32;10.10;99.90
46091;DHT22;31826;53.572;10.170;2023-04-09T10:47:00;10.20;99.90
46091;DHT22;31826;53.572;10.170;2023-04-09T10:49:38;10.30;99.90
46091;DHT22;31826;53.572;10.170;2023-04-09T10:52:08;10.30;99.90
46091;DHT22;31826;53.572;10.170;2023-04-09T10:54:44;10.10;99.90
46091;DHT22;31826;53.572;10.170;2023-04-09T10:57:15;10.00;99.90
46091;DHT22;31826;53.572;10.170;2023-04-09T10:59:50;10.20;99.90
46091;DHT22;31826;53.572;10.170;2023-04-09T11:08:06;10.30;99.90
46091;DHT22;31826;53.572;10.170;2023-04-09T11:10:34;10.30;99.90
46091;DHT22;31826;53.572;10.170;2023-04-09T11:13:01;10.30;99.90
46091;DHT22;31826;53.572;10.170;2023-04-09T11:15:27;10.40;99.90
46091;DHT22;31826;53.572;10.170;2023-04-09T11:17:53;10.40;99.90
46091;DHT22;31826;53.572;10.170;2023-04-09T11:20:20;10.40;99.90
46091;DHT22;31826;53.572;10.170;2023-04-09T11:22:50;10.50;99.90
46091;DHT22;31826;53.572;10.170;2023-04-09T11:25:23;10.50;99.90
46091;DHT22;31826;53.572;10.170;2023-04-09T11:27:49;10.50;99.90
46091;DHT22;31826;53.572;10.170;2023-04-09T11:30:15;10.40;99.90
46091;DHT22;31826;53.572;10.170;2023-04-09T11:32:41;10.30;99.90
46091;DHT22;31826;53.572;10.170;2023-04-09T11:35:15;10.50;99.90
46091;DHT22;31826;53.572;10.170;2023-04-09T11:37:42;10.70;99.90
46091;DHT22;31826;53.572;10.170;2023-04-09T11:40:19;10.90;99.90
46091;DHT22;31826;53.572;10.170;2023-04-09T11:42:48;11.10;99.90
46091;DHT22;31826;53.572;10.170;2023-04-09T11:45:15;10.80;99.90
46091;DHT22;31826;53.572;10.170;2023-04-09T11:47:43;10.90;99.90
46091;DHT22;31826;53.572;10.170;2023-04-09T11:50:10;10.70;99.90
46091;DHT22;31826;53.572;10.170;2023-04-09T11:52:36;11.10;99.90
46091;DHT22;31826;53.572;10.170;2023-04-09T11:55:06;11.50;99.90
46091;DHT22;31826;53.572;10.170;2023-04-09T11:57:45;12.30;99.90
46091;DHT22;31826;53.572;10.170;2023-04-09T12:00:13;12.70;99.90
46091;DHT22;31826;53.572;10.170;2023-04-09T12:02:44;13.30;99.90
46091;DHT22;31826;53.572;10.170;2023-04-09T12:05:19;13.90;99.90
46091;DHT22;31826;53.572;10.170;2023-04-09T12:07:45;14.60;99.90
46091;DHT22;31826;53.572;10.170;2023-04-09T12:10:11;15.20;99.90
46091;DHT22;31826;53.572;10.170;2023-04-09T12:12:46;15.60;99.90
46091;DHT22;31826;53.572;10.170;2023-04-09T12:15:20;16.20;99.90
46091;DHT22;31826;53.572;10.170;2023-04-09T12:17:52;16.10;99.90
46091;DHT22;31826;53.572;10.170;2023-04-09T12:20:35;15.70;99.90
46091;DHT22;31826;53.572;10.170;2023-04-09T12:23:03;15.30;99.90
46091;DHT22;31826;53.572;10.170;2023-04-09T12:25:30;15.10;99.90
46091;DHT22;31826;53.572;10.170;2023-04-09T12:27:56;15.00;99.90
46091;DHT22;31826;53.572;10.170;2023-04-09T12:30:23;14.40;99.90
46091;DHT22;31826;53.572;10.170;2023-04-09T12:32:50;13.90;99.90
46091;DHT22;31826;53.572;10.170;2023-04-09T12:35:16;13.70;99.90
46091;DHT22;31826;53.572;10.170;2023-04-09T12:37:42;13.40;99.90
46091;DHT22;31826;53.572;10.170;2023-04-09T12:40:08;13.90;99.90
46091;DHT22;31826;53.572;10.170;2023-04-09T12:42:35;14.70;99.90
46091;DHT22;31826;53.572;10.170;2023-04-09T12:45:00;15.20;99.90
46091;DHT22;31826;53.572;10.170;2023-04-09T12:47:26;15.40;99.90
46091;DHT22;31826;53.572;10.170;2023-04-09T12:49:53;15.60;99.90
46091;DHT22;31826;53.572;10.170;2023-04-09T12:52:19;15.40;99.90
46091;DHT22;31826;53.572;10.170;2023-04-09T12:54:44;15.20;99.90
46091;DHT22;31826;53.572;10.170;2023-04-09T12:57:10;14.80;99.90
46091;DHT22;31826;53.572;10.170;2023-04-09T12:59:36;14.60;99.90
46091;DHT22;31826;53.572;10.170;2023-04-09T13:02:02;14.80;99.90
46091;DHT22;31826;53.572;10.170;2023-04-09T13:04:27;15.10;99.90
46091;DHT22;31826;53.572;10.170;2023-04-09T13:06:53;14.50;99.90
46091;DHT22;31826;53.572;10.170;2023-04-09T13:09:19;14.30;99.90
46091;DHT22;31826;53.572;10.170;2023-04-09T13:11:45;14.30;99.90
46091;DHT22;31826;53.572;10.170;2023-04-09T13:14:10;14.80;99.90
46091;DHT22;31826;53.572;10.170;2023-04-09T13:16:39;14.70;99.90
46091;DHT22;31826;53.572;10.170;2023-04-09T13:19:07;15.20;99.90
46091;DHT22;31826;53.572;10.170;2023-04-09T13:21:33;15.10;99.40
46091;DHT22;31826;53.572;10.170;2023-04-09T13:23:58;15.60;99.70
46091;DHT22;31826;53.572;10.170;2023-04-09T13:26:24;16.00;99.10
46091;DHT22;31826;53.572;10.170;2023-04-09T13:28:50;15.90;99.90
46091;DHT22;31826;53.572;10.170;2023-04-09T13:31:18;16.20;99.50
46091;DHT22;31826;53.572;10.170;2023-04-09T13:33:44;16.40;98.30
46091;DHT22;31826;53.572;10.170;2023-04-09T13:36:10;16.30;98.00
46091;DHT22;31826;53.572;10.170;2023-04-09T13:38:36;16.30;98.60
46091;DHT22;31826;53.572;10.170;2023-04-09T13:41:02;16.50;98.40
46091;DHT22;31826;53.572;10.170;2023-04-09T13:43:28;17.00;97.40
46091;DHT22;31826;53.572;10.170;2023-04-09T13:45:54;17.30;96.70
46091;DHT22;31826;53.572;10.170;2023-04-09T13:48:20;17.30;97.30
46091;DHT22;31826;53.572;10.170;2023-04-09T13:50:46;17.70;96.80
46091;DHT22;31826;53.572;10.170;2023-04-09T13:53:13;17.60;95.40
46091;DHT22;31826;53.572;10.170;2023-04-09T13:55:38;17.20;97.00
46091;DHT22;31826;53.572;10.170;2023-04-09T13:58:04;17.60;96.90
46091;DHT22;31826;53.572;10.170;2023-04-09T14:00:34;17.70;97.00
46091;DHT22;31826;53.572;10.170;2023-04-09T14:03:01;18.00;95.80
46091;DHT22;31826;53.572;10.170;2023-04-09T14:05:30;18.10;95.40
46091;DHT22;31826;53.572;10.170;2023-04-09T14:07:57;18.00;95.60
46091;DHT22;31826;53.572;10.170;2023-04-09T14:10:23;17.70;95.50
46091;DHT22;31826;53.572;10.170;2023-04-09T14:12:49;17.40;96.30
46091;DHT22;31826;53.572;10.170;2023-04-09T14:15:15;16.80;95.50
46091;DHT22;31826;53.572;10.170;2023-04-09T14:17:42;16.20;96.30
46091;DHT22;31826;53.572;10.170;2023-04-09T14:20:08;15.80;97.10
46091;DHT22;31826;53.572;10.170;2023-04-09T14:22:34;15.60;98.40
46091;DHT22;31826;53.572;10.170;2023-04-09T14:24:59;15.40;97.90
46091;DHT22;31826;53.572;10.170;2023-04-09T14:27:25;15.10;98.20
46091;DHT22;31826;53.572;10.170;2023-04-09T14:29:51;14.90;98.30
46091;DHT22;31826;53.572;10.170;2023-04-09T14:32:17;14.70;98.80
46091;DHT22;31826;53.572;10.170;2023-04-09T14:34:43;14.80;99.60
46091;DHT22;31826;53.572;10.170;2023-04-09T14:37:09;14.90;99.20
46091;DHT22;31826;53.572;10.170;2023-04-09T14:39:35;15.20;98.30
46091;DHT22;31826;53.572;10.170;2023-04-09T14:42:00;15.60;98.10
46091;DHT22;31826;53.572;10.170;2023-04-09T14:44:26;15.60;97.30
46091;DHT22;31826;53.572;10.170;2023-04-09T14:46:52;15.80;98.70
46091;DHT22;31826;53.572;10.170;2023-04-09T14:49:21;16.00;98.00
46091;DHT22;31826;53.572;10.170;2023-04-09T14:51:47;16.10;97.90
46091;DHT22;31826;53.572;10.170;2023-04-09T14:54:12;16.20;98.00
46091;DHT22;31826;53.572;10.170;2023-04-09T14:56:38;16.20;97.60
46091;DHT22;31826;53.572;10.170;2023-04-09T14:59:04;16.20;97.60
46091;DHT22;31826;53.572;10.170;2023-04-09T15:01:29;16.20;97.30
46091;DHT22;31826;53.572;10.170;2023-04-09T15:03:55;15.80;96.60
46091;DHT22;31826;53.572;10.170;2023-04-09T15:06:21;15.80;98.00
46091;DHT22;31826;53.572;10.170;2023-04-09T15:08:47;15.80;97.70
46091;DHT22;31826;53.572;10.170;2023-04-09T15:11:17;15.60;96.90
46091;DHT22;31826;53.572;10.170;2023-04-09T15:13:43;15.40;97.60
46091;DHT22;31826;53.572;10.170;2023-04-09T15:16:10;15.20;97.20
46091;DHT22;31826;53.572;10.170;2023-04-09T15:18:35;15.00;97.60
46091;DHT22;31826;53.572;10.170;2023-04-09T15:21:02;14.80;98.40
46091;DHT22;31826;53.572;10.170;2023-04-09T15:23:27;14.70;98.50
46091;DHT22;31826;53.572;10.170;2023-04-09T15:25:53;14.70;98.90
46091;DHT22;31826;53.572;10.170;2023-04-09T15:28:19;14.50;98.80
46091;DHT22;31826;53.572;10.170;2023-04-09T15:30:45;14.30;98.30
46091;DHT22;31826;53.572;10.170;2023-04-09T15:33:12;14.00;98.60
46091;DHT22;31826;53.572;10.170;2023-04-09T15:35:37;13.90;98.90
46091;DHT22;31826;53.572;10.170;2023-04-09T15:38:03;13.90;99.10
46091;DHT22;31826;53.572;10.170;2023-04-09T15:40:29;13.90;99.10
46091;DHT22;31826;53.572;10.170;2023-04-09T15:42:56;13.80;99.10
46091;DHT22;31826;53.572;10.170;2023-04-09T15:45:22;13.70;99.20